createdAt,value
2019-05-20T00:04:17.690Z,34
2019-05-20T00:09:20.194Z,26.4
2019-05-20T00:14:22.603Z,39.8
2019-05-20T00:19:25.090Z,54.9
2019-05-20T00:24:27.622Z,96.7
2019-05-20T00:29:29.975Z,99.9
2019-05-20T00:34:34.869Z,99.9
2019-05-20T00:39:34.889Z,99.9
2019-05-20T00:44:37.354Z,99.9
2019-05-20T00:49:39.835Z,99.9
2019-05-20T00:54:42.264Z,99.9
2019-05-20T00:59:44.743Z,99.9
2019-05-20T01:04:47.210Z,87
2019-05-20T01:09:49.742Z,66.4
2019-05-20T01:14:52.096Z,55
2019-05-20T01:19:54.586Z,46.8
2019-05-20T01:24:57.157Z,39.6
2019-05-20T01:29:59.493Z,40.6
2019-05-20T01:35:02.041Z,36.3
2019-05-20T01:40:04.400Z,28.8
2019-05-20T01:45:06.839Z,25.4
2019-05-20T01:50:09.309Z,20.2
2019-05-20T01:55:11.810Z,17.3
2019-05-20T02:00:14.261Z,16
2019-05-20T02:05:16.687Z,12.1
2019-05-20T02:10:19.129Z,16.7
2019-05-20T02:15:21.621Z,14.9
2019-05-20T02:20:24.056Z,14
2019-05-20T02:25:26.531Z,14
2019-05-20T02:30:28.964Z,11.2
2019-05-20T02:35:31.443Z,11.2
2019-05-20T02:40:33.920Z,8
2019-05-20T02:45:36.370Z,3.7
2019-05-20T02:50:38.890Z,4
2019-05-20T02:55:41.284Z,11.7
2019-05-20T03:00:43.726Z,10.8
2019-05-20T03:05:46.192Z,8.5
2019-05-20T03:10:48.629Z,8.1
2019-05-20T03:15:51.115Z,35.8
2019-05-20T03:25:56.023Z,28
2019-05-20T03:30:58.469Z,27.3
2019-05-20T03:36:00.955Z,39.1
2019-05-20T03:41:03.381Z,41.5
2019-05-20T03:46:05.829Z,47.2
2019-05-20T03:51:08.279Z,77.2
2019-05-20T03:56:10.775Z,99.9
2019-05-20T04:01:13.186Z,99.9
2019-05-20T04:06:15.726Z,99.9
2019-05-20T04:11:18.141Z,99.9
2019-05-20T04:16:20.671Z,99.9
2019-05-20T04:21:23.233Z,99.9
2019-05-20T04:26:25.520Z,99.9
2019-05-20T04:31:27.969Z,99.9
2019-05-20T04:36:30.439Z,99.9
2019-05-20T04:41:35.543Z,99.9
2019-05-20T04:46:35.339Z,99.9
2019-05-20T04:51:37.799Z,88
2019-05-20T04:56:40.245Z,73.3
2019-05-20T05:01:42.877Z,48
2019-05-20T05:06:45.234Z,30.7
2019-05-20T05:11:47.605Z,5.8
2019-05-20T05:16:50.087Z,1
2019-05-20T05:21:52.517Z,1
2019-05-20T05:26:54.991Z,1
2019-05-20T05:31:57.450Z,1
2019-05-20T05:36:59.934Z,1
2019-05-20T05:42:02.403Z,1
2019-05-20T05:47:04.813Z,1
2019-05-20T05:52:07.275Z,1
2019-05-20T05:57:09.738Z,1
2019-05-20T06:02:12.330Z,1
2019-05-20T06:07:14.645Z,1
2019-05-20T06:12:17.199Z,1
2019-05-20T06:17:19.605Z,1
2019-05-20T06:22:22.016Z,1
2019-05-20T06:27:24.491Z,1
2019-05-20T06:37:29.521Z,1
2019-05-20T06:42:31.960Z,1
2019-05-20T06:47:34.398Z,1
2019-05-20T06:52:36.781Z,1
2019-05-20T06:57:39.343Z,1
2019-05-20T07:02:41.691Z,1
2019-05-20T07:07:44.183Z,1
2019-05-20T07:12:46.612Z,1
2019-05-20T07:17:49.096Z,1
2019-05-20T07:22:55.543Z,1
2019-05-20T07:27:54.040Z,1
2019-05-20T07:32:56.443Z,1
2019-05-20T07:37:58.926Z,1
2019-05-20T07:43:01.461Z,1
2019-05-20T07:48:03.865Z,1
2019-05-20T07:53:06.303Z,1
2019-05-20T07:58:08.776Z,1
2019-05-20T08:03:11.211Z,1
2019-05-20T08:08:13.697Z,1
2019-05-20T08:13:16.122Z,1
2019-05-20T08:18:20.202Z,1
2019-05-20T08:23:21.039Z,1
2019-05-20T08:28:23.513Z,1
2019-05-20T08:33:25.967Z,1
2019-05-20T08:38:28.413Z,1
2019-05-20T08:43:30.904Z,1
2019-05-20T08:48:33.344Z,1
2019-05-20T08:53:35.801Z,1
2019-05-20T08:58:38.288Z,1
2019-05-20T09:03:40.705Z,1
2019-05-20T09:08:43.253Z,1
2019-05-20T09:13:46.016Z,1
2019-05-20T09:18:48.135Z,1
2019-05-20T09:23:50.543Z,1
2019-05-20T09:28:53.125Z,1
2019-05-20T09:33:55.584Z,1
2019-05-20T09:38:58.043Z,1
2019-05-20T09:44:00.378Z,1
2019-05-20T09:49:02.859Z,1
2019-05-20T09:54:05.306Z,1
2019-05-20T09:59:07.804Z,1
2019-05-20T10:04:10.228Z,1
2019-05-20T10:09:12.668Z,1
2019-05-20T10:14:15.121Z,1
2019-05-20T10:19:17.574Z,1
2019-05-20T10:24:20.072Z,1
2019-05-20T10:29:22.531Z,1
2019-05-20T10:34:25.024Z,1
2019-05-20T10:39:27.441Z,1
2019-05-20T10:44:29.878Z,1
2019-05-20T10:49:32.377Z,1
2019-05-20T10:54:35.125Z,1
2019-05-20T10:59:37.252Z,1
2019-05-20T11:04:39.802Z,1
2019-05-20T11:09:42.246Z,1
2019-05-20T11:14:44.637Z,1
2019-05-20T11:19:47.094Z,1
2019-05-20T11:24:49.596Z,1
2019-05-20T11:29:52.053Z,1
2019-05-20T11:34:54.470Z,1
2019-05-20T11:39:56.945Z,1
2019-05-20T11:44:59.458Z,1
2019-05-20T11:50:02.156Z,1
2019-05-20T11:55:04.461Z,1
2019-05-20T12:00:06.955Z,1
2019-05-20T12:05:09.228Z,1
2019-05-20T12:10:11.691Z,1
2019-05-20T12:15:14.151Z,1
2019-05-20T12:20:16.605Z,1
2019-05-20T12:25:19.233Z,1
2019-05-20T12:30:21.648Z,1
2019-05-20T12:35:23.960Z,1
2019-05-20T12:40:26.437Z,1
2019-05-20T12:45:28.973Z,1
2019-05-20T12:50:31.347Z,1
2019-05-20T12:55:33.862Z,1
2019-05-20T13:00:36.259Z,1
2019-05-20T13:05:38.781Z,1
2019-05-20T13:10:41.256Z,1
2019-05-20T13:15:43.641Z,1
2019-05-20T13:20:46.101Z,1
2019-05-20T13:25:48.635Z,1
2019-05-20T13:30:51.040Z,1
2019-05-20T13:35:53.491Z,1
2019-05-20T13:40:55.929Z,1
2019-05-20T13:45:58.572Z,1
2019-05-20T13:51:00.847Z,1
2019-05-20T13:56:03.358Z,1
2019-05-20T14:01:05.763Z,1
2019-05-20T14:06:08.219Z,1
2019-05-20T14:11:10.676Z,1
2019-05-20T14:16:13.134Z,1
2019-05-20T14:21:15.587Z,1
2019-05-20T14:26:18.064Z,2.2
2019-05-20T14:31:20.541Z,53.9
2019-05-20T14:36:38.272Z,12.3
2019-05-20T14:41:25.440Z,1
2019-05-20T14:46:28.014Z,1
2019-05-20T14:51:30.324Z,32.9
2019-05-20T14:56:32.808Z,96.8
2019-05-20T15:01:35.273Z,60.3
2019-05-20T15:06:37.922Z,35.3
2019-05-20T15:11:40.156Z,1
2019-05-20T15:16:42.640Z,1
2019-05-20T15:21:45.516Z,1
2019-05-20T15:26:47.556Z,1
2019-05-20T15:31:50.023Z,1
2019-05-20T15:36:52.487Z,1
2019-05-20T15:41:54.933Z,1
2019-05-20T15:46:57.435Z,1
2019-05-20T15:51:59.940Z,1
2019-05-20T15:57:02.302Z,1
2019-05-20T16:02:04.790Z,1
2019-05-20T16:07:07.327Z,1
2019-05-20T16:12:09.663Z,1
2019-05-20T16:17:12.121Z,1
2019-05-20T16:22:14.609Z,1
2019-05-20T16:27:17.052Z,1
2019-05-20T16:32:19.563Z,1
2019-05-20T16:37:21.954Z,1
2019-05-20T16:42:24.454Z,1
2019-05-20T16:47:27.011Z,1
2019-05-20T16:52:30.592Z,1
2019-05-20T16:57:31.835Z,1
2019-05-20T17:02:34.264Z,1
2019-05-20T17:07:36.753Z,1
2019-05-20T17:12:39.196Z,1
2019-05-20T17:17:41.700Z,1
2019-05-20T17:22:44.169Z,1
2019-05-20T17:27:46.541Z,1
2019-05-20T17:32:49.053Z,1
2019-05-20T17:37:54.795Z,1
2019-05-20T17:42:53.900Z,1
2019-05-20T17:47:56.365Z,1
2019-05-20T17:52:58.963Z,1
2019-05-20T17:58:01.277Z,1
2019-05-20T18:03:03.802Z,1
2019-05-20T18:08:06.260Z,1
2019-05-20T18:13:08.661Z,1
2019-05-20T18:18:11.123Z,1
2019-05-20T18:23:13.602Z,1
2019-05-20T18:28:16.038Z,1
2019-05-20T18:33:18.501Z,1
2019-05-20T18:38:20.969Z,1
2019-05-20T18:43:23.408Z,1.6
2019-05-20T18:48:25.944Z,6.6
2019-05-20T18:53:28.340Z,9.7
2019-05-20T18:58:30.833Z,18.9
2019-05-20T19:03:33.969Z,37.4
2019-05-20T19:08:35.707Z,54.2
2019-05-20T19:13:38.160Z,99.9
2019-05-20T19:18:40.806Z,99.9
2019-05-20T19:23:43.070Z,99.9
2019-05-20T19:28:45.527Z,99.9
2019-05-20T19:33:47.990Z,99.9
2019-05-20T19:38:50.455Z,99.9
2019-05-20T19:43:52.942Z,99.9
2019-05-20T19:48:55.435Z,99.9
2019-05-20T19:53:57.828Z,99.9
2019-05-20T19:59:00.286Z,99.9
2019-05-20T20:04:02.896Z,99.9
2019-05-20T20:09:05.185Z,99.9
2019-05-20T20:14:07.797Z,99.9
2019-05-20T20:19:10.197Z,99.9
2019-05-20T20:24:12.565Z,99.9
2019-05-20T20:29:15.021Z,99.9
2019-05-20T20:34:17.487Z,99.9
2019-05-20T20:39:19.930Z,99.9
2019-05-20T20:44:23.076Z,99.9
2019-05-20T20:49:24.940Z,99.9
2019-05-20T20:54:27.356Z,99.9
2019-05-20T20:59:29.764Z,99.9
2019-05-20T21:04:32.235Z,99.9
2019-05-20T21:09:34.738Z,99.9
2019-05-20T21:14:37.144Z,99.9
2019-05-20T21:19:39.699Z,99.9
2019-05-20T21:24:42.039Z,99.9
2019-05-20T21:29:44.572Z,99.9
2019-05-20T21:34:46.989Z,99.9
2019-05-20T21:39:49.432Z,99.9
2019-05-20T21:44:51.924Z,99.9
2019-05-20T21:49:54.443Z,99.9
2019-05-20T21:54:56.815Z,99.9
2019-05-20T21:59:59.281Z,99.9
2019-05-20T22:05:01.839Z,99.9
2019-05-20T22:10:04.204Z,99.9
2019-05-20T22:15:06.709Z,99.9
2019-05-20T22:20:09.228Z,99.9
2019-05-20T22:25:11.725Z,99.9
2019-05-20T22:30:14.018Z,99.9
2019-05-20T22:35:16.464Z,99.9
2019-05-20T22:40:18.953Z,99.9
2019-05-20T22:45:21.381Z,99.9
2019-05-20T22:50:23.906Z,99.9
2019-05-20T22:55:26.286Z,99.9
2019-05-20T23:00:28.772Z,99.9
2019-05-20T23:05:31.233Z,99.9
2019-05-20T23:10:33.832Z,99.9
2019-05-20T23:15:36.134Z,99.9
2019-05-20T23:20:38.787Z,99.9
2019-05-20T23:25:41.064Z,99.9
2019-05-20T23:30:43.512Z,99.9
2019-05-20T23:35:45.978Z,99.9
2019-05-20T23:40:48.471Z,99.9
2019-05-20T23:45:50.891Z,99.9
2019-05-20T23:50:53.395Z,99.9
2019-05-20T23:55:55.826Z,99.9
